sensor_id;sensor_type;location;lat;lon;timestamp;pressure;altitude;pressure_sealevel;temperature;humidity
12879;BME280;20617;49.476;10.986;2022-12-07T00:00:13;98310.16;;;3.54;100.00
12879;BME280;20617;49.476;10.986;2022-12-07T00:02:18;98308.44;;;3.54;100.00
12879;BME280;20617;49.476;10.986;2022-12-07T00:04:24;98306.69;;;3.56;100.00
12879;BME280;20617;49.476;10.986;2022-12-07T00:06:30;98293.84;;;3.58;100.00
12879;BME280;20617;49.476;10.986;2022-12-07T00:08:35;98289.56;;;3.54;100.00
12879;BME280;20617;49.476;10.986;2022-12-07T00:10:40;98297.22;;;3.61;100.00
12879;BME280;20617;49.476;10.986;2022-12-07T00:12:48;98292.91;;;3.60;100.00
12879;BME280;20617;49.476;10.986;2022-12-07T00:14:53;98293.00;;;3.56;100.00
12879;BME280;20617;49.476;10.986;2022-12-07T00:16:57;98301.59;;;3.52;100.00
12879;BME280;20617;49.476;10.986;2022-12-07T00:19:03;98297.34;;;3.52;100.00
12879;BME280;20617;49.476;10.986;2022-12-07T00:21:11;98293.78;;;3.59;100.00
12879;BME280;20617;49.476;10.986;2022-12-07T00:23:16;98290.28;;;3.63;100.00
12879;BME280;20617;49.476;10.986;2022-12-07T00:25:23;98292.81;;;3.70;100.00
12879;BME280;20617;49.476;10.986;2022-12-07T00:27:27;98285.03;;;3.73;100.00
12879;BME280;20617;49.476;10.986;2022-12-07T00:29:35;98287.53;;;3.77;100.00
12879;BME280;20617;49.476;10.986;2022-12-07T00:31:40;98289.25;;;3.77;100.00
12879;BME280;20617;49.476;10.986;2022-12-07T00:33:46;98285.81;;;3.78;100.00
12879;BME280;20617;49.476;10.986;2022-12-07T00:35:55;98284.94;;;3.79;100.00
12879;BME280;20617;49.476;10.986;2022-12-07T00:38:00;98290.06;;;3.80;100.00
12879;BME280;20617;49.476;10.986;2022-12-07T00:40:06;98282.34;;;3.80;100.00
12879;BME280;20617;49.476;10.986;2022-12-07T00:42:11;98284.03;;;3.83;100.00
12879;BME280;20617;49.476;10.986;2022-12-07T00:44:16;98288.38;;;3.79;100.00
12879;BME280;20617;49.476;10.986;2022-12-07T00:46:24;98285.00;;;3.76;100.00
12879;BME280;20617;49.476;10.986;2022-12-07T00:48:29;98284.06;;;3.80;100.00
12879;BME280;20617;49.476;10.986;2022-12-07T00:50:34;98287.47;;;3.80;100.00
12879;BME280;20617;49.476;10.986;2022-12-07T00:52:39;98289.31;;;3.75;100.00
12879;BME280;20617;49.476;10.986;2022-12-07T00:54:45;98292.75;;;3.73;100.00
12879;BME280;20617;49.476;10.986;2022-12-07T00:56:53;98291.88;;;3.75;100.00
12879;BME280;20617;49.476;10.986;2022-12-07T00:58:59;98291.94;;;3.71;100.00
12879;BME280;20617;49.476;10.986;2022-12-07T01:01:06;98289.31;;;3.74;100.00
12879;BME280;20617;49.476;10.986;2022-12-07T01:03:15;98285.06;;;3.71;100.00
12879;BME280;20617;49.476;10.986;2022-12-07T01:05:20;98282.44;;;3.74;100.00
12879;BME280;20617;49.476;10.986;2022-12-07T01:07:25;98285.03;;;3.73;100.00
12879;BME280;20617;49.476;10.986;2022-12-07T01:09:30;98288.47;;;3.73;100.00
12879;BME280;20617;49.476;10.986;2022-12-07T01:11:34;98287.53;;;3.77;100.00
12879;BME280;20617;49.476;10.986;2022-12-07T01:13:39;98290.19;;;3.73;100.00
12879;BME280;20617;49.476;10.986;2022-12-07T01:15:45;98289.31;;;3.74;100.00
12879;BME280;20617;49.476;10.986;2022-12-07T01:17:50;98283.28;;;3.75;100.00
12879;BME280;20617;49.476;10.986;2022-12-07T01:19:59;98290.16;;;3.74;100.00
12879;BME280;20617;49.476;10.986;2022-12-07T01:22:04;98290.22;;;3.70;100.00
12879;BME280;20617;49.476;10.986;2022-12-07T01:24:10;98291.97;;;3.66;100.00
12879;BME280;20617;49.476;10.986;2022-12-07T01:26:17;98293.69;;;3.67;100.00
12879;BME280;20617;49.476;10.986;2022-12-07T01:28:22;98293.63;;;3.72;100.00
12879;BME280;20617;49.476;10.986;2022-12-07T01:30:27;98294.50;;;3.71;100.00
12879;BME280;20617;49.476;10.986;2022-12-07T01:32:33;98291.97;;;3.66;100.00
12879;BME280;20617;49.476;10.986;2022-12-07T01:34:38;98292.78;;;3.71;100.00
12879;BME280;20617;49.476;10.986;2022-12-07T01:36:45;98290.28;;;3.65;100.00
12879;BME280;20617;49.476;10.986;2022-12-07T01:38:55;98295.47;;;3.62;100.00
12879;BME280;20617;49.476;10.986;2022-12-07T01:41:02;98293.78;;;3.61;100.00
12879;BME280;20617;49.476;10.986;2022-12-07T01:43:14;98300.53;;;3.70;100.00
12879;BME280;20617;49.476;10.986;2022-12-07T01:45:37;98289.47;;;3.61;100.00
12879;BME280;20617;49.476;10.986;2022-12-07T01:47:45;98290.25;;;3.68;100.00
12879;BME280;20617;49.476;10.986;2022-12-07T01:49:53;98292.81;;;3.70;100.00
12879;BME280;20617;49.476;10.986;2022-12-07T01:52:07;98296.31;;;3.64;100.00
12879;BME280;20617;49.476;10.986;2022-12-07T01:54:16;98293.75;;;3.64;100.00
12879;BME280;20617;49.476;10.986;2022-12-07T01:56:24;98280.88;;;3.64;100.00
12879;BME280;20617;49.476;10.986;2022-12-07T01:58:30;98282.50;;;3.70;100.00
12879;BME280;20617;49.476;10.986;2022-12-07T02:00:36;98278.06;;;3.78;100.00
12879;BME280;20617;49.476;10.986;2022-12-07T02:02:44;98273.97;;;3.66;100.00
12879;BME280;20617;49.476;10.986;2022-12-07T02:04:51;98277.28;;;3.74;100.00
12879;BME280;20617;49.476;10.986;2022-12-07T02:06:57;98279.81;;;3.77;100.00
12879;BME280;20617;49.476;10.986;2022-12-07T02:09:05;98279.72;;;3.85;100.00
12879;BME280;20617;49.476;10.986;2022-12-07T02:11:10;98279.81;;;3.79;100.00
12879;BME280;20617;49.476;10.986;2022-12-07T02:13:18;98281.50;;;3.80;100.00
12879;BME280;20617;49.476;10.986;2022-12-07T02:15:27;98283.22;;;3.79;100.00
12879;BME280;20617;49.476;10.986;2022-12-07T02:17:39;98284.16;;;3.72;100.00
12879;BME280;20617;49.476;10.986;2022-12-07T02:20:03;98285.00;;;3.74;100.00
12879;BME280;20617;49.476;10.986;2022-12-07T02:22:22;98280.78;;;3.70;100.00
12879;BME280;20617;49.476;10.986;2022-12-07T02:24:48;98280.88;;;3.64;100.00
12879;BME280;20617;49.476;10.986;2022-12-07T02:27:22;98283.44;;;3.64;100.00
12879;BME280;20617;49.476;10.986;2022-12-07T02:29:38;98278.41;;;3.56;100.00
12879;BME280;20617;49.476;10.986;2022-12-07T02:31:53;98280.97;;;3.55;100.00
12879;BME280;20617;49.476;10.986;2022-12-07T02:34:06;98279.28;;;3.54;100.00
12879;BME280;20617;49.476;10.986;2022-12-07T02:36:18;98284.44;;;3.55;100.00
12879;BME280;20617;49.476;10.986;2022-12-07T02:38:30;98281.94;;;3.48;100.00
12879;BME280;20617;49.476;10.986;2022-12-07T02:40:39;98279.31;;;3.51;100.00
12879;BME280;20617;49.476;10.986;2022-12-07T02:42:50;98277.63;;;3.50;100.00
12879;BME280;20617;49.476;10.986;2022-12-07T02:45:01;98272.44;;;3.53;100.00
12879;BME280;20617;49.476;10.986;2022-12-07T02:47:09;98274.13;;;3.55;100.00
12879;BME280;20617;49.476;10.986;2022-12-07T02:49:15;98270.66;;;3.58;100.00
12879;BME280;20617;49.476;10.986;2022-12-07T02:51:21;98268.94;;;3.58;100.00
12879;BME280;20617;49.476;10.986;2022-12-07T02:53:31;98264.63;;;3.59;100.00
12879;BME280;20617;49.476;10.986;2022-12-07T02:55:39;98257.75;;;3.59;100.00
12879;BME280;20617;49.476;10.986;2022-12-07T02:57:54;98255.31;;;3.49;100.00
12879;BME280;20617;49.476;10.986;2022-12-07T03:00:09;98243.28;;;3.51;100.00
12879;BME280;20617;49.476;10.986;2022-12-07T03:02:22;98226.97;;;3.52;100.00
12879;BME280;20617;49.476;10.986;2022-12-07T03:04:40;98222.63;;;3.57;100.00
12879;BME280;20617;49.476;10.986;2022-12-07T03:06:51;98222.56;;;3.60;100.00
12879;BME280;20617;49.476;10.986;2022-12-07T03:09:05;98216.47;;;3.66;100.00
12879;BME280;20617;49.476;10.986;2022-12-07T03:11:15;98220.69;;;3.71;100.00
12879;BME280;20617;49.476;10.986;2022-12-07T03:13:25;98213.72;;;3.78;100.00
12879;BME280;20617;49.476;10.986;2022-12-07T03:15:40;98212.81;;;3.80;100.00
12879;BME280;20617;49.476;10.986;2022-12-07T03:17:49;98219.69;;;3.80;100.00
12879;BME280;20617;49.476;10.986;2022-12-07T03:19:58;98219.84;;;3.69;100.00
12879;BME280;20617;49.476;10.986;2022-12-07T03:22:07;98217.28;;;3.71;100.00
12879;BME280;20617;49.476;10.986;2022-12-07T03:24:15;98212.03;;;3.77;100.00
12879;BME280;20617;49.476;10.986;2022-12-07T03:26:25;98211.91;;;3.83;100.00
12879;BME280;20617;49.476;10.986;2022-12-07T03:28:39;98209.22;;;3.91;100.00
12879;BME280;20617;49.476;10.986;2022-12-07T03:30:52;98211.75;;;3.94;100.00
12879;BME280;20617;49.476;10.986;2022-12-07T03:33:03;98196.38;;;3.91;100.00
12879;BME280;20617;49.476;10.986;2022-12-07T03:35:15;98191.16;;;3.92;100.00
12879;BME280;20617;49.476;10.986;2022-12-07T03:37:26;98195.34;;;3.99;100.00
12879;BME280;20617;49.476;10.986;2022-12-07T03:39:36;98194.41;;;4.03;100.00
12879;BME280;20617;49.476;10.986;2022-12-07T03:41:47;98191.06;;;3.98;100.00
12879;BME280;20617;49.476;10.986;2022-12-07T03:43:55;98196.38;;;3.89;100.00
12879;BME280;20617;49.476;10.986;2022-12-07T03:46:10;98196.41;;;3.86;100.00
12879;BME280;20617;49.476;10.986;2022-12-07T03:48:22;98183.69;;;3.78;100.00
12879;BME280;20617;49.476;10.986;2022-12-07T03:50:33;98191.44;;;3.77;100.00
12879;BME280;20617;49.476;10.986;2022-12-07T03:52:45;98191.41;;;3.78;100.00
12879;BME280;20617;49.476;10.986;2022-12-07T03:54:57;98195.72;;;3.76;100.00
12879;BME280;20617;49.476;10.986;2022-12-07T03:57:05;98194.22;;;3.63;100.00
12879;BME280;20617;49.476;10.986;2022-12-07T03:59:11;98210.53;;;3.60;100.00
12879;BME280;20617;49.476;10.986;2022-12-07T04:01:20;98202.06;;;3.55;100.00
12879;BME280;20617;49.476;10.986;2022-12-07T04:03:25;98206.34;;;3.55;100.00
12879;BME280;20617;49.476;10.986;2022-12-07T04:05:30;98201.13;;;3.61;100.00
12879;BME280;20617;49.476;10.986;2022-12-07T04:07:34;98206.19;;;3.66;100.00
12879;BME280;20617;49.476;10.986;2022-12-07T04:09:40;98207.03;;;3.68;100.00
12879;BME280;20617;49.476;10.986;2022-12-07T04:11:46;98206.06;;;3.73;100.00
12879;BME280;20617;49.476;10.986;2022-12-07T04:13:51;98215.69;;;3.60;100.00
12879;BME280;20617;49.476;10.986;2022-12-07T04:16:08;98215.91;;;3.47;100.00
12879;BME280;20617;49.476;10.986;2022-12-07T04:18:16;98218.59;;;3.40;100.00
12879;BME280;20617;49.476;10.986;2022-12-07T04:20:21;98220.34;;;3.35;100.00
12879;BME280;20617;49.476;10.986;2022-12-07T04:22:26;98220.50;;;3.25;100.00
12879;BME280;20617;49.476;10.986;2022-12-07T04:24:31;98230.78;;;3.25;100.00
12879;BME280;20617;49.476;10.986;2022-12-07T04:26:36;98228.28;;;3.20;100.00
12879;BME280;20617;49.476;10.986;2022-12-07T04:28:41;98225.78;;;3.14;100.00
12879;BME280;20617;49.476;10.986;2022-12-07T04:30:46;98221.50;;;3.14;100.00
12879;BME280;20617;49.476;10.986;2022-12-07T04:32:51;98220.66;;;3.12;100.00
12879;BME280;20617;49.476;10.986;2022-12-07T04:34:59;98219.81;;;3.12;100.00
12879;BME280;20617;49.476;10.986;2022-12-07T04:37:04;98220.56;;;3.18;100.00
12879;BME280;20617;49.476;10.986;2022-12-07T04:39:20;98220.38;;;3.34;100.00
12879;BME280;20617;49.476;10.986;2022-12-07T04:41:25;98214.38;;;3.35;100.00
12879;BME280;20617;49.476;10.986;2022-12-07T04:43:31;98206.59;;;3.36;100.00
12879;BME280;20617;49.476;10.986;2022-12-07T04:45:36;98209.19;;;3.38;100.00
12879;BME280;20617;49.476;10.986;2022-12-07T04:47:41;98209.94;;;3.43;100.00
12879;BME280;20617;49.476;10.986;2022-12-07T04:49:46;98210.03;;;3.38;100.00
12879;BME280;20617;49.476;10.986;2022-12-07T04:51:53;98209.22;;;3.35;100.00
12879;BME280;20617;49.476;10.986;2022-12-07T04:53:58;98211.75;;;3.36;100.00
12879;BME280;20617;49.476;10.986;2022-12-07T04:56:03;98210.72;;;3.50;100.00
12879;BME280;20617;49.476;10.986;2022-12-07T04:58:08;98206.41;;;3.50;100.00
12879;BME280;20617;49.476;10.986;2022-12-07T05:00:13;98205.44;;;3.59;100.00
12879;BME280;20617;49.476;10.986;2022-12-07T05:02:18;98206.22;;;3.62;100.00
12879;BME280;20617;49.476;10.986;2022-12-07T05:04:23;98202.75;;;3.65;100.00
12879;BME280;20617;49.476;10.986;2022-12-07T05:06:28;98196.63;;;3.72;100.00
12879;BME280;20617;49.476;10.986;2022-12-07T05:08:35;98200.78;;;3.82;100.00
12879;BME280;20617;49.476;10.986;2022-12-07T05:10:43;98194.63;;;3.90;100.00
12879;BME280;20617;49.476;10.986;2022-12-07T05:12:48;98197.19;;;3.93;100.00
12879;BME280;20617;49.476;10.986;2022-12-07T05:14:53;98184.28;;;3.94;100.00
12879;BME280;20617;49.476;10.986;2022-12-07T05:16:58;98185.00;;;4.01;100.00
12879;BME280;20617;49.476;10.986;2022-12-07T05:19:03;98183.22;;;4.06;100.00
12879;BME280;20617;49.476;10.986;2022-12-07T05:21:08;98181.47;;;4.08;100.00
12879;BME280;20617;49.476;10.986;2022-12-07T05:23:13;98183.16;;;4.11;100.00
12879;BME280;20617;49.476;10.986;2022-12-07T05:25:20;98187.47;;;4.07;100.00
12879;BME280;20617;49.476;10.986;2022-12-07T05:27:25;98194.47;;;4.02;100.00
12879;BME280;20617;49.476;10.986;2022-12-07T05:29:30;98194.47;;;4.00;100.00
12879;BME280;20617;49.476;10.986;2022-12-07T05:31:35;98189.38;;;3.99;100.00
12879;BME280;20617;49.476;10.986;2022-12-07T05:33:40;98189.25;;;4.03;100.00
12879;BME280;20617;49.476;10.986;2022-12-07T05:35:48;98184.00;;;4.11;100.00
12879;BME280;20617;49.476;10.986;2022-12-07T05:37:53;98183.06;;;4.15;100.00
12879;BME280;20617;49.476;10.986;2022-12-07T05:39:57;98186.50;;;4.14;100.00
12879;BME280;20617;49.476;10.986;2022-12-07T05:42:06;98179.63;;;4.16;100.00
12879;BME280;20617;49.476;10.986;2022-12-07T05:44:14;98188.19;;;4.17;100.00
12879;BME280;20617;49.476;10.986;2022-12-07T05:46:19;98194.34;;;4.08;100.00
12879;BME280;20617;49.476;10.986;2022-12-07T05:48:24;98188.31;;;4.09;100.00
12879;BME280;20617;49.476;10.986;2022-12-07T05:50:29;98189.09;;;4.14;100.00
12879;BME280;20617;49.476;10.986;2022-12-07T05:52:34;98185.56;;;4.18;100.00
12879;BME280;20617;49.476;10.986;2022-12-07T05:54:39;98176.16;;;4.16;100.00
12879;BME280;20617;49.476;10.986;2022-12-07T05:56:47;98172.75;;;4.15;100.00
12879;BME280;20617;49.476;10.986;2022-12-07T05:58:57;98171.78;;;4.21;100.00
12879;BME280;20617;49.476;10.986;2022-12-07T06:01:14;98179.56;;;4.19;100.00
12879;BME280;20617;49.476;10.986;2022-12-07T06:03:19;98180.66;;;4.06;100.00
12879;BME280;20617;49.476;10.986;2022-12-07T06:05:24;98185.78;;;4.06;100.00
12879;BME280;20617;49.476;10.986;2022-12-07T06:07:29;98186.69;;;4.05;100.00
12879;BME280;20617;49.476;10.986;2022-12-07T06:09:34;98181.59;;;4.02;100.00
12879;BME280;20617;49.476;10.986;2022-12-07T06:11:40;98171.97;;;4.12;100.00
12879;BME280;20617;49.476;10.986;2022-12-07T06:14:00;98168.75;;;3.99;100.00
12879;BME280;20617;49.476;10.986;2022-12-07T06:16:05;98175.66;;;3.95;100.00
12879;BME280;20617;49.476;10.986;2022-12-07T06:18:10;98186.22;;;3.80;100.00
12879;BME280;20617;49.476;10.986;2022-12-07T06:20:15;98180.28;;;3.76;100.00
12879;BME280;20617;49.476;10.986;2022-12-07T06:22:20;98175.03;;;3.81;100.00
12879;BME280;20617;49.476;10.986;2022-12-07T06:24:25;98175.09;;;3.78;100.00
12879;BME280;20617;49.476;10.986;2022-12-07T06:26:30;98170.81;;;3.77;100.00
12879;BME280;20617;49.476;10.986;2022-12-07T06:28:35;98176.75;;;3.82;100.00
12879;BME280;20617;49.476;10.986;2022-12-07T06:30:43;98176.81;;;3.79;100.00
12879;BME280;20617;49.476;10.986;2022-12-07T06:32:48;98188.88;;;3.75;100.00
12879;BME280;20617;49.476;10.986;2022-12-07T06:34:53;98192.41;;;3.70;100.00
12879;BME280;20617;49.476;10.986;2022-12-07T06:36:58;98190.63;;;3.73;100.00
12879;BME280;20617;49.476;10.986;2022-12-07T06:39:04;98189.78;;;3.73;100.00
12879;BME280;20617;49.476;10.986;2022-12-07T06:41:10;98189.88;;;3.67;100.00
12879;BME280;20617;49.476;10.986;2022-12-07T06:43:15;98188.16;;;3.66;100.00
12879;BME280;20617;49.476;10.986;2022-12-07T06:45:20;98185.47;;;3.73;100.00
12879;BME280;20617;49.476;10.986;2022-12-07T06:47:28;98176.81;;;3.77;100.00
12879;BME280;20617;49.476;10.986;2022-12-07T06:49:42;98186.22;;;3.80;100.00
12879;BME280;20617;49.476;10.986;2022-12-07T06:51:47;98178.28;;;3.92;100.00
12879;BME280;20617;49.476;10.986;2022-12-07T06:53:52;98171.44;;;3.93;100.00
12879;BME280;20617;49.476;10.986;2022-12-07T06:55:57;98174.88;;;3.93;100.00
12879;BME280;20617;49.476;10.986;2022-12-07T06:58:02;98181.75;;;3.91;100.00
12879;BME280;20617;49.476;10.986;2022-12-07T07:00:08;98175.59;;;4.00;100.00
12879;BME280;20617;49.476;10.986;2022-12-07T07:02:22;98173.69;;;4.11;100.00
12879;BME280;20617;49.476;10.986;2022-12-07T07:04:30;98170.94;;;4.20;100.00
12879;BME280;20617;49.476;10.986;2022-12-07T07:06:34;98180.41;;;4.18;100.00
12879;BME280;20617;49.476;10.986;2022-12-07T07:08:40;98179.56;;;4.18;100.00
12879;BME280;20617;49.476;10.986;2022-12-07T07:10:45;98180.19;;;3.81;100.00
12879;BME280;20617;49.476;10.986;2022-12-07T07:12:52;98181.81;;;3.88;100.00
12879;BME280;20617;49.476;10.986;2022-12-07T07:14:58;98186.91;;;3.90;100.00
12879;BME280;20617;49.476;10.986;2022-12-07T07:17:03;98182.66;;;3.89;100.00
12879;BME280;20617;49.476;10.986;2022-12-07T07:19:08;98182.59;;;3.92;100.00
12879;BME280;20617;49.476;10.986;2022-12-07T07:21:15;98186.97;;;3.86;100.00
12879;BME280;20617;49.476;10.986;2022-12-07T07:23:21;98182.69;;;3.85;100.00
12879;BME280;20617;49.476;10.986;2022-12-07T07:25:25;98192.25;;;3.79;100.00
12879;BME280;20617;49.476;10.986;2022-12-07T07:27:30;98184.41;;;3.86;100.00
12879;BME280;20617;49.476;10.986;2022-12-07T07:29:36;98185.47;;;3.73;100.00
12879;BME280;20617;49.476;10.986;2022-12-07T07:31:41;98180.16;;;3.84;100.00
12879;BME280;20617;49.476;10.986;2022-12-07T07:33:48;98181.13;;;3.77;100.00
12879;BME280;20617;49.476;10.986;2022-12-07T07:35:53;98191.47;;;3.72;100.00
12879;BME280;20617;49.476;10.986;2022-12-07T07:38:01;98187.31;;;3.67;100.00
12879;BME280;20617;49.476;10.986;2022-12-07T07:40:08;98195.78;;;3.72;100.00
12879;BME280;20617;49.476;10.986;2022-12-07T07:42:14;98201.00;;;3.69;100.00
12879;BME280;20617;49.476;10.986;2022-12-07T07:44:20;98202.81;;;3.60;100.00
12879;BME280;20617;49.476;10.986;2022-12-07T07:46:32;98206.28;;;3.61;100.00
12879;BME280;20617;49.476;10.986;2022-12-07T07:48:37;98207.97;;;3.62;100.00
12879;BME280;20617;49.476;10.986;2022-12-07T07:50:42;98201.03;;;3.66;100.00
12879;BME280;20617;49.476;10.986;2022-12-07T07:52:47;98207.13;;;3.61;100.00
12879;BME280;20617;49.476;10.986;2022-12-07T07:54:57;98207.06;;;3.65;100.00
12879;BME280;20617;49.476;10.986;2022-12-07T07:57:02;98207.16;;;3.58;100.00
12879;BME280;20617;49.476;10.986;2022-12-07T07:59:07;98213.25;;;3.53;100.00
12879;BME280;20617;49.476;10.986;2022-12-07T08:01:11;98218.41;;;3.53;100.00
12879;BME280;20617;49.476;10.986;2022-12-07T08:03:18;98210.50;;;3.65;100.00
12879;BME280;20617;49.476;10.986;2022-12-07T08:05:23;98211.28;;;3.70;100.00
12879;BME280;20617;49.476;10.986;2022-12-07T08:07:28;98218.06;;;3.74;100.00
12879;BME280;20617;49.476;10.986;2022-12-07T08:09:33;98218.84;;;3.78;100.00
12879;BME280;20617;49.476;10.986;2022-12-07T08:11:40;98218.69;;;3.90;100.00
12879;BME280;20617;49.476;10.986;2022-12-07T08:13:45;98215.50;;;3.74;100.00
12879;BME280;20617;49.476;10.986;2022-12-07T08:15:51;98210.28;;;3.79;100.00
12879;BME280;20617;49.476;10.986;2022-12-07T08:17:56;98224.16;;;3.69;100.00
12879;BME280;20617;49.476;10.986;2022-12-07T08:20:00;98226.03;;;3.59;100.00
12879;BME280;20617;49.476;10.986;2022-12-07T08:22:06;98220.97;;;3.51;100.00
12879;BME280;20617;49.476;10.986;2022-12-07T08:24:11;98226.13;;;3.51;100.00
12879;BME280;20617;49.476;10.986;2022-12-07T08:26:16;98225.94;;;3.67;100.00
12879;BME280;20617;49.476;10.986;2022-12-07T08:28:23;98225.19;;;3.58;100.00
12879;BME280;20617;49.476;10.986;2022-12-07T08:30:29;98225.19;;;3.57;100.00
12879;BME280;20617;49.476;10.986;2022-12-07T08:32:34;98230.22;;;3.65;100.00
12879;BME280;20617;49.476;10.986;2022-12-07T08:34:39;98220.59;;;3.79;100.00
12879;BME280;20617;49.476;10.986;2022-12-07T08:36:43;98213.72;;;3.78;100.00
12879;BME280;20617;49.476;10.986;2022-12-07T08:38:51;98209.50;;;3.75;100.00
12879;BME280;20617;49.476;10.986;2022-12-07T08:41:17;98211.66;;;3.98;100.00
12879;BME280;20617;49.476;10.986;2022-12-07T08:43:24;98208.91;;;4.11;100.00
12879;BME280;20617;49.476;10.986;2022-12-07T08:45:29;98201.31;;;4.03;100.00
12879;BME280;20617;49.476;10.986;2022-12-07T08:47:38;98194.53;;;3.97;100.00
12879;BME280;20617;49.476;10.986;2022-12-07T08:49:47;98203.03;;;4.01;100.00
12879;BME280;20617;49.476;10.986;2022-12-07T08:51:55;98197.09;;;3.97;100.00
12879;BME280;20617;49.476;10.986;2022-12-07T08:54:02;98202.19;;;4.02;100.00
12879;BME280;20617;49.476;10.986;2022-12-07T08:56:09;98209.03;;;4.01;100.00
12879;BME280;20617;49.476;10.986;2022-12-07T08:58:14;98200.47;;;4.02;100.00
12879;BME280;20617;49.476;10.986;2022-12-07T09:00:22;98211.50;;;4.09;100.00
12879;BME280;20617;49.476;10.986;2022-12-07T09:02:27;98208.13;;;4.05;100.00
12879;BME280;20617;49.476;10.986;2022-12-07T09:04:32;98221.91;;;4.04;100.00
12879;BME280;20617;49.476;10.986;2022-12-07T09:06:37;98224.41;;;4.07;100.00
12879;BME280;20617;49.476;10.986;2022-12-07T09:08:46;98238.22;;;4.03;100.00
12879;BME280;20617;49.476;10.986;2022-12-07T09:10:51;98230.63;;;3.96;100.00
12879;BME280;20617;49.476;10.986;2022-12-07T09:12:56;98223.75;;;3.96;100.00
12879;BME280;20617;49.476;10.986;2022-12-07T09:15:03;98233.16;;;3.97;100.00
12879;BME280;20617;49.476;10.986;2022-12-07T09:17:12;98232.25;;;4.00;100.00
12879;BME280;20617;49.476;10.986;2022-12-07T09:19:17;98234.78;;;4.04;100.00
12879;BME280;20617;49.476;10.986;2022-12-07T09:21:22;98245.09;;;4.03;100.00
12879;BME280;20617;49.476;10.986;2022-12-07T09:23:27;98247.03;;;3.90;100.00
12879;BME280;20617;49.476;10.986;2022-12-07T09:25:32;98257.28;;;3.92;100.00
12879;BME280;20617;49.476;10.986;2022-12-07T09:27:37;98258.25;;;3.84;100.00
12879;BME280;20617;49.476;10.986;2022-12-07T09:29:41;98254.81;;;3.85;100.00
12879;BME280;20617;49.476;10.986;2022-12-07T09:31:46;98260.78;;;3.88;100.00
12879;BME280;20617;49.476;10.986;2022-12-07T09:33:58;98255.41;;;4.01;100.00
12879;BME280;20617;49.476;10.986;2022-12-07T09:36:03;98256.03;;;4.17;100.00
12879;BME280;20617;49.476;10.986;2022-12-07T09:38:08;98243.03;;;4.23;100.00
12879;BME280;20617;49.476;10.986;2022-12-07T09:40:14;98246.44;;;4.25;100.00
12879;BME280;20617;49.476;10.986;2022-12-07T09:42:29;98241.25;;;4.27;100.00
12879;BME280;20617;49.476;10.986;2022-12-07T09:44:40;98232.56;;;4.34;100.00
12879;BME280;20617;49.476;10.986;2022-12-07T09:46:45;98241.19;;;4.30;100.00
12879;BME280;20617;49.476;10.986;2022-12-07T09:48:51;98242.34;;;4.14;100.00
12879;BME280;20617;49.476;10.986;2022-12-07T09:51:00;98238.63;;;4.30;100.00
12879;BME280;20617;49.476;10.986;2022-12-07T09:53:09;98236.72;;;4.41;100.00
12879;BME280;20617;49.476;10.986;2022-12-07T09:55:19;98230.53;;;4.51;100.00
12879;BME280;20617;49.476;10.986;2022-12-07T09:57:29;98227.84;;;4.56;100.00
12879;BME280;20617;49.476;10.986;2022-12-07T09:59:36;98223.38;;;4.66;100.00
12879;BME280;20617;49.476;10.986;2022-12-07T10:01:42;98223.47;;;4.61;100.00
12879;BME280;20617;49.476;10.986;2022-12-07T10:03:50;98219.25;;;4.57;100.00
12879;BME280;20617;49.476;10.986;2022-12-07T10:05:59;98223.59;;;4.53;100.00
12879;BME280;20617;49.476;10.986;2022-12-07T10:08:04;98226.94;;;4.60;100.00
12879;BME280;20617;49.476;10.986;2022-12-07T10:10:14;98223.63;;;4.52;100.00
12879;BME280;20617;49.476;10.986;2022-12-07T10:12:20;98223.53;;;4.58;100.00
12879;BME280;20617;49.476;10.986;2022-12-07T10:14:27;98214.81;;;4.64;100.00
12879;BME280;20617;49.476;10.986;2022-12-07T10:16:52;98214.78;;;4.65;100.00
12879;BME280;20617;49.476;10.986;2022-12-07T10:19:18;98210.31;;;4.73;100.00
12879;BME280;20617;49.476;10.986;2022-12-07T10:21:27;98202.59;;;4.73;100.00
12879;BME280;20617;49.476;10.986;2022-12-07T10:23:32;98195.09;;;4.63;100.00
12879;BME280;20617;49.476;10.986;2022-12-07T10:25:36;98198.63;;;4.57;100.00
12879;BME280;20617;49.476;10.986;2022-12-07T10:27:42;98199.53;;;4.54;100.00
12879;BME280;20617;49.476;10.986;2022-12-07T10:29:48;98203.09;;;4.47;100.00
12879;BME280;20617;49.476;10.986;2022-12-07T10:31:56;98207.25;;;4.54;100.00
12879;BME280;20617;49.476;10.986;2022-12-07T10:34:01;98202.13;;;4.54;100.00
12879;BME280;20617;49.476;10.986;2022-12-07T10:36:17;98193.41;;;4.60;100.00
12879;BME280;20617;49.476;10.986;2022-12-07T10:38:27;98200.00;;;4.73;100.00
12879;BME280;20617;49.476;10.986;2022-12-07T10:40:36;98190.72;;;4.66;100.00
12879;BME280;20617;49.476;10.986;2022-12-07T10:43:00;98188.97;;;4.67;100.00
12879;BME280;20617;49.476;10.986;2022-12-07T10:45:08;98190.00;;;4.60;100.00
12879;BME280;20617;49.476;10.986;2022-12-07T10:47:33;98193.41;;;4.60;100.00
12879;BME280;20617;49.476;10.986;2022-12-07T10:52:20;98183.94;;;4.61;100.00
12879;BME280;20617;49.476;10.986;2022-12-07T10:54:39;98190.06;;;4.55;100.00
12879;BME280;20617;49.476;10.986;2022-12-07T10:57:01;98194.38;;;4.54;100.00
12879;BME280;20617;49.476;10.986;2022-12-07T10:59:24;98193.59;;;4.51;100.00
12879;BME280;20617;49.476;10.986;2022-12-07T11:01:41;98194.50;;;4.48;100.00
12879;BME280;20617;49.476;10.986;2022-12-07T11:03:58;98196.34;;;4.40;100.00
12879;BME280;20617;49.476;10.986;2022-12-07T11:06:15;98196.25;;;4.46;100.00
12879;BME280;20617;49.476;10.986;2022-12-07T11:08:37;98181.59;;;4.48;100.00
12879;BME280;20617;49.476;10.986;2022-12-07T11:10:54;98177.19;;;4.53;100.00